Terminal Aerodrome Forecast
Issued by NWS

Home | Current Version | Previous Version | Text Only | Print | Product List | Glossary On
Versions: 1 2 3 4 5 6 7 8 9 10 11 12 13 14 15 16 17 18 19 20 21
523
FTUS42 KJAX 031018 AAA
TAFCRG
TAF AMD
KCRG 031018Z 0310/0406 23005KT P6SM FEW015 SCT080 BKN200
      TEMPO 0312/0314 BKN012
     FM031400 25010KT P6SM SCT035 BKN050
     FM031900 24011KT P6SM VCTS BKN040CB
     FM040000 25005KT P6SM VCSH SCT040 BKN120=

USA.gov is the U.S. government's official web portal to all federal, state and local government web resources and services.